createdAt,value
2022-12-19T00:00:39.225Z,102597.13
2022-12-19T00:03:43.763Z,102598.81
2022-12-19T00:06:46.672Z,102606.50
2022-12-19T00:09:50.131Z,102599.69
2022-12-19T00:12:52.872Z,102601.38
2022-12-19T00:15:55.603Z,102595.41
2022-12-19T00:18:59.963Z,102586.84
2022-12-19T00:22:04.364Z,102586.00
2022-12-19T00:25:10.056Z,102583.44
2022-12-19T00:28:14.113Z,102574.03
2022-12-19T00:31:18.808Z,102575.72
2022-12-19T00:34:21.579Z,102581.69
2022-12-19T00:37:24.278Z,102592.81
2022-12-19T00:40:27.495Z,102596.22
2022-12-19T00:43:30.299Z,102596.22
2022-12-19T00:46:34.271Z,102590.25
2022-12-19T00:49:37.068Z,102598.78
2022-12-19T00:52:41.140Z,102588.53
2022-12-19T00:55:44.084Z,102595.38
2022-12-19T00:58:47.620Z,102596.22
2022-12-19T01:01:50.655Z,102603.06
2022-12-19T01:04:53.684Z,102601.34
2022-12-19T01:07:56.449Z,102594.53
2022-12-19T01:10:59.549Z,102597.94
2022-12-19T01:14:02.265Z,102591.12
2022-12-19T01:17:04.906Z,102592.81
2022-12-19T01:20:08.496Z,102582.56
2022-12-19T01:23:11.533Z,102574.03
2022-12-19T01:26:14.206Z,102576.59
2022-12-19T01:29:17.231Z,102572.31
2022-12-19T01:32:20.878Z,102573.16
2022-12-19T01:35:24.122Z,102571.47
2022-12-19T01:38:27.035Z,102579.13
2022-12-19T01:41:29.830Z,102576.56
2022-12-19T01:44:32.603Z,102568.87
2022-12-19T01:47:53.494Z,102565.44
2022-12-19T01:51:02.718Z,102557.72
2022-12-19T01:54:08.787Z,102554.09
2022-12-19T01:57:14.498Z,102549.53
2022-12-19T02:00:17.478Z,102556.25
2022-12-19T02:03:27.610Z,102551.53
2022-12-19T02:06:31.976Z,102553.88
2022-12-19T02:09:35.180Z,102553.84
2022-12-19T02:12:41.427Z,102553.03
2022-12-19T02:15:57.822Z,102548.78
2022-12-19T02:19:38.246Z,102558.19
2022-12-19T02:23:05.851Z,102560.75
2022-12-19T02:26:20.622Z,102561.47
2022-12-19T02:29:42.459Z,102558.84
2022-12-19T02:32:59.860Z,102543.47
2022-12-19T02:36:08.736Z,102539.94
2022-12-19T02:39:36.406Z,102535.53
2022-12-19T02:42:42.232Z,102529.34
2022-12-19T02:45:45.910Z,102537.00
2022-12-19T02:48:49.037Z,102533.59
2022-12-19T02:51:51.972Z,102527.50
2022-12-19T02:54:58.633Z,102524.69
2022-12-19T02:58:13.382Z,102524.66
2022-12-19T03:01:38.467Z,102527.88
2022-12-19T03:05:23.049Z,102509.62
2022-12-19T03:08:28.802Z,102517.38
2022-12-19T03:11:35.233Z,102514.66
2022-12-19T03:14:38.193Z,102517.34
2022-12-19T03:17:41.277Z,102524.28
2022-12-19T03:20:55.501Z,102536.22
2022-12-19T03:23:59.131Z,102529.38
2022-12-19T03:27:05.486Z,102512.22
2022-12-19T03:30:11.436Z,102520.69
2022-12-19T03:33:14.921Z,102513.91
2022-12-19T03:36:21.735Z,102498.47
2022-12-19T03:39:25.795Z,102497.59
2022-12-19T03:42:47.890Z,102501.84
2022-12-19T03:46:10.508Z,102497.53
2022-12-19T03:49:14.053Z,102500.03
2022-12-19T03:52:16.774Z,102512.00
2022-12-19T03:55:28.025Z,102510.16
2022-12-19T03:58:35.059Z,102513.53
2022-12-19T04:01:39.063Z,102510.06
2022-12-19T04:04:45.028Z,102516.59
2022-12-19T04:07:48.313Z,102507.09
2022-12-19T04:10:55.825Z,102515.56
2022-12-19T04:14:02.148Z,102516.25
2022-12-19T04:17:16.913Z,102498.16
2022-12-19T04:20:21.557Z,102504.81
2022-12-19T04:23:29.461Z,102509.09
2022-12-19T04:26:33.140Z,102501.25
2022-12-19T04:29:37.785Z,102492.53
2022-12-19T04:32:45.021Z,102493.38
2022-12-19T04:35:47.809Z,102509.62
2022-12-19T04:38:50.630Z,102515.56
2022-12-19T04:41:53.433Z,102517.34
2022-12-19T04:44:56.677Z,102512.97
2022-12-19T04:47:59.436Z,102507.91
2022-12-19T04:51:02.139Z,102501.72
2022-12-19T04:54:04.852Z,102508.56
2022-12-19T04:57:07.537Z,102498.25
2022-12-19T05:00:11.431Z,102494.75
2022-12-19T05:03:14.496Z,102499.78
2022-12-19T05:06:17.366Z,102508.28
2022-12-19T05:09:20.173Z,102497.75
2022-12-19T05:12:22.895Z,102496.78
2022-12-19T05:15:25.634Z,102489.91
2022-12-19T05:18:29.722Z,102492.47
2022-12-19T05:21:32.523Z,102495.03
2022-12-19T05:24:35.329Z,102495.03
2022-12-19T05:27:38.065Z,102501.97
2022-12-19T05:30:41.077Z,102501.09
2022-12-19T05:33:43.900Z,102502.03
2022-12-19T05:36:47.064Z,102507.19
2022-12-19T05:39:49.797Z,102506.97
2022-12-19T05:42:52.575Z,102506.84
2022-12-19T05:45:55.269Z,102498.31
2022-12-19T05:48:58.123Z,102507.84
2022-12-19T05:52:01.508Z,102513.88
2022-12-19T05:55:04.950Z,102514.00
2022-12-19T05:58:07.644Z,102526.81
2022-12-19T06:01:22.665Z,102526.81
2022-12-19T06:04:25.752Z,102520.00
2022-12-19T06:07:28.827Z,102527.84
2022-12-19T06:10:31.889Z,102515.00
2022-12-19T06:13:36.161Z,102517.47
2022-12-19T06:16:39.174Z,102518.31
2022-12-19T06:19:43.291Z,102526.84
2022-12-19T06:22:46.119Z,102512.13
2022-12-19T06:25:48.818Z,102513.84
2022-12-19T06:28:52.849Z,102526.66
2022-12-19T06:31:56.204Z,102532.59
2022-12-19T06:35:06.130Z,102541.19
2022-12-19T06:38:09.025Z,102545.41
2022-12-19T06:41:31.044Z,102537.66
2022-12-19T06:44:34.651Z,102536.03
2022-12-19T06:47:37.355Z,102528.34
2022-12-19T06:50:40.225Z,102529.22
2022-12-19T06:53:43.146Z,102525.78
2022-12-19T06:56:45.966Z,102524.97
2022-12-19T06:59:48.887Z,102528.41
2022-12-19T07:02:52.307Z,102525.81
2022-12-19T07:05:55.319Z,102525.81
2022-12-19T07:08:58.058Z,102519.78
2022-12-19T07:12:01.582Z,102523.91
2022-12-19T07:15:05.013Z,102524.72
2022-12-19T07:18:09.366Z,102530.66
2022-12-19T07:21:12.415Z,102534.03
2022-12-19T07:24:15.897Z,102551.94
2022-12-19T07:27:18.608Z,102550.06
2022-12-19T07:30:22.433Z,102561.19
2022-12-19T07:33:25.648Z,102566.25
2022-12-19T07:36:28.252Z,102565.22
2022-12-19T07:39:31.243Z,102566.00
2022-12-19T07:42:34.662Z,102568.56
2022-12-19T07:45:38.802Z,102572.94
2022-12-19T07:48:41.875Z,102559.94
2022-12-19T07:51:44.845Z,102573.66
2022-12-19T07:54:47.528Z,102563.22
2022-12-19T07:57:50.438Z,102560.53
2022-12-19T08:01:01.126Z,102560.34
2022-12-19T08:04:04.097Z,102557.59
2022-12-19T08:07:06.743Z,102549.59
2022-12-19T08:10:11.811Z,102561.38
2022-12-19T08:13:14.543Z,102588.84
2022-12-19T08:16:17.333Z,102592.91
2022-12-19T08:19:23.493Z,102589.44
2022-12-19T08:22:30.704Z,102582.66
2022-12-19T08:25:33.815Z,102595.53
2022-12-19T08:28:37.347Z,102575.69
2022-12-19T08:31:40.917Z,102567.81
2022-12-19T08:34:43.752Z,102555.72
2022-12-19T08:37:46.431Z,102568.66
2022-12-19T08:40:54.285Z,102568.72
2022-12-19T08:43:57.075Z,102571.22
2022-12-19T08:46:59.948Z,102565.91
2022-12-19T08:50:02.606Z,102565.03
2022-12-19T08:53:05.503Z,102570.84
2022-12-19T08:56:14.625Z,102582.91
2022-12-19T08:59:25.002Z,102581.88
2022-12-19T09:02:34.421Z,102586.34
2022-12-19T09:06:00.417Z,102589.75
2022-12-19T09:09:01.509Z,102581.78
2022-12-19T09:12:04.435Z,102575.72
2022-12-19T09:15:07.576Z,102574.12
2022-12-19T09:18:10.395Z,102576.69
2022-12-19T09:21:14.295Z,102568.13
2022-12-19T09:24:17.195Z,102573.34
2022-12-19T09:27:19.861Z,102575.91
2022-12-19T09:30:22.873Z,102577.47
2022-12-19T09:33:26.525Z,102573.94
2022-12-19T09:36:29.383Z,102580.56
2022-12-19T09:39:33.245Z,102577.91
2022-12-19T09:42:40.601Z,102577.81
2022-12-19T09:45:55.163Z,102562.19
2022-12-19T09:48:58.635Z,102562.16
2022-12-19T09:52:08.399Z,102551.50
2022-12-19T09:55:17.282Z,102565.28
2022-12-19T09:58:38.589Z,102555.72
2022-12-19T10:01:54.105Z,102548.78
2022-12-19T10:05:22.413Z,102555.63
2022-12-19T10:08:46.765Z,102552.16
2022-12-19T10:12:49.864Z,102546.91
2022-12-19T10:16:13.552Z,102542.53
2022-12-19T10:19:37.890Z,102536.59
2022-12-19T10:22:52.831Z,102521.06
2022-12-19T10:26:05.038Z,102526.19
2022-12-19T10:29:29.484Z,102535.94
2022-12-19T10:32:55.584Z,102540.19
2022-12-19T10:36:02.720Z,102539.00
2022-12-19T10:39:13.362Z,102543.44
2022-12-19T10:42:23.285Z,102532.19
2022-12-19T10:45:31.243Z,102530.50
2022-12-19T10:48:34.268Z,102526.97
2022-12-19T10:51:36.943Z,102536.19
2022-12-19T10:54:42.858Z,102532.97
2022-12-19T10:57:45.659Z,102538.69
2022-12-19T11:00:54.647Z,102538.84
2022-12-19T11:04:27.016Z,102545.72
2022-12-19T11:07:29.878Z,102531.34
2022-12-19T11:12:35.788Z,102528.69
2022-12-19T11:19:16.101Z,102533.66
2022-12-19T11:26:19.247Z,102514.22
2022-12-19T11:29:29.884Z,102509.94
2022-12-19T11:30:05.878Z,102507.22
2022-12-19T11:30:25.885Z,102498.47
2022-12-19T11:35:16.779Z,102490.59
2022-12-19T11:38:48.814Z,102492.38
2022-12-19T11:42:08.000Z,102479.38
2022-12-19T11:45:37.109Z,102474.25
2022-12-19T11:48:45.325Z,102477.81
2022-12-19T11:52:29.855Z,102472.25
2022-12-19T11:55:51.694Z,102475.28
2022-12-19T11:58:59.279Z,102487.06
2022-12-19T12:02:23.587Z,102492.34
2022-12-19T12:05:39.256Z,102492.97
2022-12-19T12:10:36.904Z,102489.41
2022-12-19T12:22:00.710Z,102479.34
2022-12-19T12:27:05.778Z,102483.91
2022-12-19T12:31:32.345Z,102474.16
2022-12-19T12:32:00.973Z,102464.88
2022-12-19T12:32:04.831Z,102446.66
2022-12-19T12:35:07.335Z,102449.72
2022-12-19T12:35:40.932Z,102451.00
2022-12-19T12:38:23.713Z,102451.28
2022-12-19T12:42:06.396Z,102446.84
2022-12-19T12:45:19.959Z,102453.59
2022-12-19T12:48:36.356Z,102442.09
2022-12-19T12:51:41.328Z,102434.41
2022-12-19T12:54:45.796Z,102416.00
2022-12-19T12:57:49.646Z,102411.59
2022-12-19T13:01:27.062Z,102392.97
2022-12-19T13:04:35.495Z,102398.31
2022-12-19T13:07:58.543Z,102394.06
2022-12-19T13:11:04.463Z,102409.19
2022-12-19T13:14:37.344Z,102412.22
2022-12-19T13:17:43.217Z,102402.78
2022-12-19T13:20:48.678Z,102392.09
2022-12-19T13:23:51.445Z,102373.22
2022-12-19T13:26:54.384Z,102378.25
2022-12-19T13:30:00.277Z,102380.53
2022-12-19T13:33:03.967Z,102386.25
2022-12-19T13:40:02.198Z,102368.94
2022-12-19T13:40:44.577Z,102384.12
2022-12-19T13:43:48.936Z,102369.94
2022-12-19T13:46:52.380Z,102373.53
2022-12-19T13:49:56.464Z,102373.75
2022-12-19T13:53:01.119Z,102366.25
2022-12-19T13:56:20.470Z,102362.16
2022-12-19T13:59:27.188Z,102360.38
2022-12-19T14:02:43.911Z,102363.91
2022-12-19T14:06:17.235Z,102352.72
2022-12-19T14:11:27.289Z,102346.62
2022-12-19T14:14:00.208Z,102357.09
2022-12-19T14:16:44.189Z,102357.09
2022-12-19T14:20:06.767Z,102347.56
2022-12-19T14:23:36.850Z,102356.19
2022-12-19T14:28:20.450Z,102357.00
2022-12-19T14:30:28.283Z,102347.53
2022-12-19T14:34:04.330Z,102352.66
2022-12-19T14:37:39.101Z,102337.97
2022-12-19T14:41:07.546Z,102344.00
2022-12-19T14:52:52.339Z,102344.00
2022-12-19T14:54:06.700Z,102341.34
2022-12-19T14:54:34.716Z,102344.78
2022-12-19T14:58:53.650Z,102354.25
2022-12-19T15:01:32.953Z,102343.03
2022-12-19T15:04:52.515Z,102334.47
2022-12-19T15:08:01.087Z,102322.34
2022-12-19T15:11:48.843Z,102338.75
2022-12-19T15:15:03.238Z,102343.13
2022-12-19T15:18:18.567Z,102340.50
2022-12-19T15:21:21.902Z,102350.84
2022-12-19T15:24:27.970Z,102348.16
2022-12-19T15:27:35.105Z,102330.06
2022-12-19T15:30:54.306Z,102328.44
2022-12-19T15:37:21.140Z,102301.69
2022-12-19T15:40:24.600Z,102316.34
2022-12-19T15:44:01.820Z,102300.00
2022-12-19T15:46:51.962Z,102305.28
2022-12-19T15:49:55.985Z,102301.03
2022-12-19T15:53:01.104Z,102301.91
2022-12-19T15:56:04.000Z,102305.38
2022-12-19T15:59:18.330Z,102302.00
2022-12-19T16:02:27.912Z,102308.94
2022-12-19T16:05:40.360Z,102298.56
2022-12-19T16:08:44.265Z,102283.91
2022-12-19T16:11:50.511Z,102296.81
2022-12-19T16:15:34.402Z,102299.41
2022-12-19T16:18:39.458Z,102296.72
2022-12-19T16:21:42.371Z,102291.44
2022-12-19T16:24:45.344Z,102296.50
2022-12-19T16:27:56.283Z,102300.78
2022-12-19T16:31:00.633Z,102302.53
2022-12-19T16:34:05.536Z,102311.16
2022-12-19T16:37:08.376Z,102307.75
2022-12-19T16:40:21.767Z,102316.38
2022-12-19T16:43:35.576Z,102320.66
2022-12-19T16:46:38.892Z,102330.03
2022-12-19T16:49:42.127Z,102336.97
2022-12-19T16:52:45.258Z,102334.31
2022-12-19T16:55:50.679Z,102341.19
2022-12-19T16:58:54.080Z,102346.41
2022-12-19T17:01:57.436Z,102337.84
2022-12-19T17:05:00.623Z,102343.81
2022-12-19T17:08:07.067Z,102342.94
2022-12-19T17:11:18.422Z,102336.09
2022-12-19T17:14:23.100Z,102338.69
2022-12-19T17:17:27.261Z,102323.91
2022-12-19T17:20:38.505Z,102314.44
2022-12-19T17:23:42.019Z,102322.25
2022-12-19T17:26:45.678Z,102320.50
2022-12-19T17:29:48.625Z,102316.12
2022-12-19T17:32:53.585Z,102319.59
2022-12-19T17:35:56.665Z,102311.84
2022-12-19T17:39:00.146Z,102310.16
2022-12-19T17:42:16.868Z,102304.97
2022-12-19T17:45:19.901Z,102298.88
2022-12-19T17:48:32.336Z,102295.50
2022-12-19T17:51:35.357Z,102301.56
2022-12-19T17:54:38.228Z,102303.31
2022-12-19T17:57:41.176Z,102289.47
2022-12-19T18:00:48.468Z,102287.03
2022-12-19T18:03:52.989Z,102282.75
2022-12-19T18:06:55.856Z,102266.47
2022-12-19T18:09:59.328Z,102261.34
2022-12-19T18:13:02.263Z,102259.53
2022-12-19T18:16:10.121Z,102253.56
2022-12-19T18:19:22.946Z,102243.03
2022-12-19T18:22:26.682Z,102243.00
2022-12-19T18:25:32.151Z,102233.41
2022-12-19T18:28:35.635Z,102240.28
2022-12-19T18:31:43.642Z,102243.72
2022-12-19T18:34:52.941Z,102261.75
2022-12-19T18:37:59.970Z,102268.56
2022-12-19T18:41:03.204Z,102265.81
2022-12-19T18:44:06.392Z,102251.13
2022-12-19T18:47:20.374Z,102237.25
2022-12-19T18:50:26.390Z,102239.00
2022-12-19T18:53:35.738Z,102244.16
2022-12-19T18:56:39.004Z,102237.25
2022-12-19T18:59:42.016Z,102244.97
2022-12-19T19:02:57.873Z,102247.56
2022-12-19T19:06:01.220Z,102253.56
2022-12-19T19:09:24.289Z,102260.44
2022-12-19T19:12:28.973Z,102243.22
2022-12-19T19:15:34.884Z,102251.03
2022-12-19T19:18:41.799Z,102244.06
2022-12-19T19:21:48.580Z,102250.97
2022-12-19T19:25:04.225Z,102249.25
2022-12-19T19:28:52.691Z,102241.41
2022-12-19T19:36:12.176Z,102245.75
2022-12-19T19:39:16.203Z,102237.06
2022-12-19T19:42:19.544Z,102244.91
2022-12-19T19:45:23.885Z,102249.19
2022-12-19T19:48:26.999Z,102253.41
2022-12-19T19:51:29.819Z,102247.37
2022-12-19T19:54:38.619Z,102254.31
2022-12-19T19:57:41.498Z,102240.44
2022-12-19T20:00:47.337Z,102247.44
2022-12-19T20:03:52.897Z,102236.16
2022-12-19T20:06:56.656Z,102237.91
2022-12-19T20:09:59.737Z,102239.59
2022-12-19T20:13:02.653Z,102246.47
2022-12-19T20:16:11.657Z,102243.03
2022-12-19T20:19:17.681Z,102240.44
2022-12-19T20:22:21.649Z,102256.91
2022-12-19T20:25:24.624Z,102257.75
2022-12-19T20:28:28.061Z,102248.28
2022-12-19T20:31:31.588Z,102252.62
2022-12-19T20:34:34.622Z,102250.94
2022-12-19T20:37:37.975Z,102248.34
2022-12-19T20:40:41.624Z,102243.16
2022-12-19T20:43:45.160Z,102244.84
2022-12-19T20:46:48.197Z,102239.66
2022-12-19T20:49:51.085Z,102226.75
2022-12-19T20:52:56.757Z,102225.97
2022-12-19T20:56:01.404Z,102221.62
2022-12-19T20:59:04.742Z,102225.91
2022-12-19T21:02:07.715Z,102212.09
2022-12-19T21:05:11.910Z,102211.22
2022-12-19T21:08:14.971Z,102212.09
2022-12-19T21:11:18.188Z,102208.69
2022-12-19T21:14:21.037Z,102201.81
2022-12-19T21:17:23.973Z,102201.75
2022-12-19T21:20:32.522Z,102191.38
2022-12-19T21:23:38.633Z,102200.91
2022-12-19T21:26:45.432Z,102193.13
2022-12-19T21:29:48.290Z,102194.88
2022-12-19T21:32:51.121Z,102188.84
2022-12-19T21:35:54.322Z,102190.53
2022-12-19T21:38:59.619Z,102185.34
2022-12-19T21:42:02.452Z,102178.38
2022-12-19T21:45:05.771Z,102182.66
2022-12-19T21:48:08.750Z,102180.06
2022-12-19T21:51:13.533Z,102179.09
2022-12-19T21:54:16.388Z,102177.28
2022-12-19T21:57:19.125Z,102169.56
2022-12-19T22:00:22.236Z,102168.78
2022-12-19T22:03:25.160Z,102164.50
2022-12-19T22:06:32.102Z,102169.56
2022-12-19T22:09:34.938Z,102164.44
2022-12-19T22:12:37.816Z,102168.72
2022-12-19T22:15:40.579Z,102160.09
2022-12-19T22:18:43.885Z,102157.75
2022-12-19T22:21:47.548Z,102164.44
2022-12-19T22:24:51.811Z,102167.88
2022-12-19T22:27:56.464Z,102165.34
2022-12-19T22:30:59.821Z,102159.31
2022-12-19T22:34:08.528Z,102156.72
2022-12-19T22:37:11.563Z,102158.47
2022-12-19T22:40:14.603Z,102164.50
2022-12-19T22:43:17.628Z,102152.44
2022-12-19T22:46:28.827Z,102161.06
2022-12-19T22:49:32.008Z,102156.78
2022-12-19T22:52:34.865Z,102152.44
2022-12-19T22:55:38.743Z,102133.47
2022-12-19T22:58:43.425Z,102127.44
2022-12-19T23:01:46.620Z,102125.69
2022-12-19T23:04:49.549Z,102114.47
2022-12-19T23:07:55.469Z,102121.41
2022-12-19T23:11:03.214Z,102120.56
2022-12-19T23:14:08.452Z,102107.75
2022-12-19T23:17:11.310Z,102111.94
2022-12-19T23:20:14.562Z,102116.28
2022-12-19T23:23:17.466Z,102112.00
2022-12-19T23:26:31.647Z,102110.25
2022-12-19T23:29:34.681Z,102109.34
2022-12-19T23:32:37.555Z,102110.25
2022-12-19T23:35:43.911Z,102116.28
2022-12-19T23:38:46.793Z,102125.81
2022-12-19T23:41:49.747Z,102128.34
2022-12-19T23:44:52.904Z,102105.91
2022-12-19T23:47:55.679Z,102092.97
2022-12-19T23:51:03.930Z,102115.44
2022-12-19T23:54:06.930Z,102131.81
2022-12-19T23:57:09.772Z,102133.50
